Time;durP1;ratioP1;P1;durP2;ratioP2;P2;SDS_P1;SDS_P2;PMS_P1;PMS_P2;Temp;Humidity;BMP_temperature;BMP_pressure;BME280_temperature;BME280_humidity;BME280_pressure;Samples;Min_cycle;Max_cycle;Signal;HPM_P1;HPM_P2
2021/06/28 00:00:11;;;;;;;3.85;3.55;;;21.30;82.10;;;;;;5070632;28;20125;-71
2021/06/28 00:02:38;;;;;;;4.93;3.67;;;21.30;82.10;;;;;;5071898;28;20400;-71
2021/06/28 00:05:06;;;;;;;3.58;3.28;;;21.20;82.10;;;;;;5074566;28;20039;-71
2021/06/28 00:07:32;;;;;;;3.72;3.40;;;21.10;82.30;;;;;;5082257;28;20023;-71
2021/06/28 00:09:58;;;;;;;5.05;3.25;;;21.10;82.40;;;;;;5069855;28;20032;-70
2021/06/28 00:12:23;;;;;;;5.03;4.20;;;21.10;82.70;;;;;;5069955;28;20408;-70
2021/06/28 00:14:49;;;;;;;5.60;4.22;;;21.00;82.20;;;;;;5069557;28;20035;-70
2021/06/28 00:17:14;;;;;;;7.63;4.72;;;20.80;82.60;;;;;;5070170;28;20106;-71
2021/06/28 00:19:40;;;;;;;6.85;4.93;;;20.70;82.80;;;;;;5070501;28;20032;-71
2021/06/28 00:22:06;;;;;;;10.88;4.97;;;20.60;83.20;;;;;;5069865;28;20048;-71
2021/06/28 00:24:31;;;;;;;6.35;5.00;;;20.60;83.50;;;;;;5068845;28;20531;-68
2021/06/28 00:26:57;;;;;;;6.63;4.55;;;20.50;83.50;;;;;;5042757;28;20095;-71
2021/06/28 00:29:23;;;;;;;5.63;4.80;;;20.40;83.70;;;;;;5059852;28;20021;-70
2021/06/28 00:31:51;;;;;;;5.32;4.70;;;20.40;84.10;;;;;;5063136;28;20420;-70
2021/06/28 00:34:17;;;;;;;13.23;5.18;;;20.30;84.20;;;;;;5052050;28;20067;-71
2021/06/28 00:36:43;;;;;;;6.57;4.90;;;20.30;84.30;;;;;;5069111;28;20493;-70
2021/06/28 00:39:08;;;;;;;6.82;5.05;;;20.30;84.50;;;;;;5069571;28;20369;-70
2021/06/28 00:41:34;;;;;;;5.85;4.75;;;20.30;84.40;;;;;;5065351;28;20063;-70
2021/06/28 00:43:59;;;;;;;7.93;4.43;;;20.30;84.40;;;;;;5067068;28;20036;-70
2021/06/28 00:46:25;;;;;;;5.05;4.07;;;20.40;84.40;;;;;;5068861;28;20044;-70
2021/06/28 00:48:51;;;;;;;4.00;3.60;;;20.40;84.50;;;;;;5069294;28;20032;-69
2021/06/28 00:51:16;;;;;;;4.03;3.65;;;20.40;84.40;;;;;;5069136;28;20028;-69
2021/06/28 00:53:42;;;;;;;4.55;3.97;;;20.50;84.40;;;;;;5063847;22;20023;-68
2021/06/28 00:56:09;;;;;;;6.85;3.63;;;20.50;84.20;;;;;;5048120;28;20094;-66
2021/06/28 00:58:39;;;;;;;4.00;3.60;;;20.50;84.00;;;;;;5062257;28;20380;-67
2021/06/28 01:01:05;;;;;;;4.00;3.40;;;20.50;84.00;;;;;;5065182;28;20039;-67
2021/06/28 01:03:31;;;;;;;5.82;3.70;;;20.50;83.90;;;;;;5068751;28;20021;-67
2021/06/28 01:05:57;;;;;;;3.53;3.22;;;20.50;84.10;;;;;;5068012;28;20476;-67
2021/06/28 01:08:23;;;;;;;3.45;3.20;;;20.60;84.20;;;;;;5043325;28;20024;-67
2021/06/28 01:10:49;;;;;;;4.45;3.00;;;20.60;84.00;;;;;;5069455;28;20024;-67
2021/06/28 01:13:14;;;;;;;4.40;3.03;;;20.60;83.90;;;;;;5069193;28;20039;-68
2021/06/28 01:15:40;;;;;;;3.85;3.42;;;20.60;83.70;;;;;;5068967;28;20023;-66
2021/06/28 01:18:07;;;;;;;3.83;3.45;;;20.60;83.80;;;;;;5068648;28;20046;-66
2021/06/28 01:20:33;;;;;;;4.57;3.20;;;20.60;83.70;;;;;;5069561;28;20017;-67
2021/06/28 01:23:24;;;;;;;4.53;3.28;;;20.60;83.70;;;;;;5069926;28;20056;-67
2021/06/28 01:26:07;;;;;;;3.13;2.92;;;20.60;83.70;;;;;;5068112;28;20031;-67
2021/06/28 01:28:32;;;;;;;6.53;3.10;;;20.60;83.70;;;;;;5069232;28;20033;-66
2021/06/28 01:30:59;;;;;;;5.25;3.50;;;20.60;83.50;;;;;;5069139;28;20028;-67
2021/06/28 01:33:29;;;;;;;2.97;2.78;;;20.60;83.40;;;;;;5062723;28;20028;-66
2021/06/28 01:35:55;;;;;;;6.55;3.10;;;20.60;83.50;;;;;;5063371;28;20025;-66
2021/06/28 01:38:20;;;;;;;6.18;3.90;;;20.50;83.30;;;;;;5067020;28;20028;-67
2021/06/28 01:40:47;;;;;;;3.97;3.60;;;20.50;83.30;;;;;;5071779;28;20472;-67
2021/06/28 01:43:13;;;;;;;5.57;3.55;;;20.40;83.50;;;;;;5073090;28;20055;-67
2021/06/28 01:45:39;;;;;;;5.07;3.85;;;20.40;83.70;;;;;;5053993;28;20518;-67
2021/06/28 01:48:06;;;;;;;11.00;4.43;;;20.40;83.80;;;;;;5072898;28;20033;-66
2021/06/28 01:50:34;;;;;;;7.13;3.60;;;20.30;83.80;;;;;;5073246;28;20067;-67
2021/06/28 01:53:00;;;;;;;5.57;3.67;;;20.30;84.10;;;;;;5072572;28;20033;-69
2021/06/28 01:55:26;;;;;;;4.93;3.85;;;20.30;84.20;;;;;;5071160;28;20037;-68
2021/06/28 01:57:55;;;;;;;5.63;3.70;;;20.30;84.20;;;;;;5072886;28;20052;-67
2021/06/28 02:00:23;;;;;;;6.65;3.85;;;20.20;84.30;;;;;;5035618;28;20024;-67
2021/06/28 02:03:11;;;;;;;11.05;3.72;;;20.20;84.50;;;;;;5070982;28;20027;-67
2021/06/28 02:05:40;;;;;;;5.13;3.90;;;20.10;84.80;;;;;;5072136;28;20059;-66
2021/06/28 02:08:07;;;;;;;3.95;3.58;;;20.10;84.60;;;;;;5072238;28;20028;-67
2021/06/28 02:10:38;;;;;;;3.92;3.40;;;20.10;84.70;;;;;;5035077;28;20519;-67
2021/06/28 02:13:04;;;;;;;7.60;3.72;;;20.10;85.00;;;;;;5071583;28;20029;-67
2021/06/28 02:15:31;;;;;;;5.32;3.90;;;20.10;85.00;;;;;;5071708;28;20096;-66
2021/06/28 02:17:59;;;;;;;4.90;4.00;;;20.10;85.10;;;;;;5072670;28;20536;-68
2021/06/28 02:20:24;;;;;;;7.95;4.00;;;20.00;85.00;;;;;;5072591;28;20059;-68
2021/06/28 02:22:51;;;;;;;6.28;3.65;;;20.00;85.10;;;;;;5072697;28;20048;-67
2021/06/28 02:25:19;;;;;;;6.25;4.00;;;19.90;85.30;;;;;;5078029;28;20064;-67
2021/06/28 02:27:46;;;;;;;6.82;3.47;;;19.90;85.50;;;;;;5072518;28;20028;-66
2021/06/28 02:30:15;;;;;;;9.82;4.30;;;19.90;85.60;;;;;;5069985;28;20362;-66
2021/06/28 02:32:43;;;;;;;12.27;3.90;;;19.80;85.70;;;;;;5071582;28;20024;-66
2021/06/28 02:35:11;;;;;;;11.90;4.00;;;19.80;85.60;;;;;;5035619;28;20043;-67
2021/06/28 02:37:38;;;;;;;6.80;4.20;;;19.80;85.80;;;;;;5069564;28;20476;-66
2021/06/28 02:40:06;;;;;;;8.32;3.85;;;19.80;85.80;;;;;;5063623;28;20284;-68
2021/06/28 02:42:32;;;;;;;5.70;3.33;;;19.70;85.90;;;;;;5071198;28;20040;-67
2021/06/28 02:44:57;;;;;;;5.05;3.65;;;19.70;85.90;;;;;;5068163;28;20039;-66
2021/06/28 02:47:23;;;;;;;6.40;3.83;;;19.70;86.00;;;;;;5071539;28;20037;-68
2021/06/28 02:49:48;;;;;;;7.47;4.13;;;19.70;86.20;;;;;;5072823;28;20435;-67
2021/06/28 02:52:14;;;;;;;9.70;4.05;;;19.70;86.30;;;;;;5070448;28;20036;-66
2021/06/28 02:54:40;;;;;;;7.38;4.10;;;19.70;86.30;;;;;;5067266;28;20463;-67
2021/06/28 02:57:05;;;;;;;9.38;4.25;;;19.70;86.30;;;;;;5071686;28;20329;-68
2021/06/28 02:59:31;;;;;;;4.85;4.07;;;19.70;86.30;;;;;;5072372;28;20017;-68
2021/06/28 03:01:57;;;;;;;7.32;4.22;;;19.70;86.30;;;;;;5054149;28;20512;-67
2021/06/28 03:04:23;;;;;;;6.75;4.25;;;19.70;86.30;;;;;;5071299;28;20029;-66
2021/06/28 03:06:48;;;;;;;7.72;4.38;;;19.70;86.10;;;;;;5070614;28;20074;-67
2021/06/28 03:09:14;;;;;;;5.07;4.35;;;19.60;86.00;;;;;;5071837;28;20072;-68
2021/06/28 03:11:39;;;;;;;7.78;4.10;;;19.60;86.10;;;;;;5071665;28;20490;-68
2021/06/28 03:14:06;;;;;;;4.95;3.90;;;19.60;86.20;;;;;;5071737;28;20028;-67
2021/06/28 03:16:32;;;;;;;5.15;4.03;;;19.60;86.40;;;;;;5070524;28;20028;-67
2021/06/28 03:18:58;;;;;;;6.47;4.18;;;19.60;86.60;;;;;;5071533;28;20023;-67
2021/06/28 03:21:23;;;;;;;5.15;4.13;;;19.60;86.60;;;;;;5071717;28;20397;-67
2021/06/28 03:23:49;;;;;;;5.18;3.58;;;19.60;86.60;;;;;;5052624;28;20044;-66
2021/06/28 03:26:15;;;;;;;6.57;4.22;;;19.60;86.70;;;;;;5069992;28;20153;-67
2021/06/28 03:28:40;;;;;;;6.10;3.85;;;19.60;86.80;;;;;;5071935;28;20024;-67
2021/06/28 03:31:07;;;;;;;5.40;3.75;;;19.60;86.90;;;;;;5071034;28;20111;-68
2021/06/28 03:33:34;;;;;;;3.97;3.67;;;19.60;87.00;;;;;;5071138;28;20013;-67
2021/06/28 03:36:00;;;;;;;4.15;3.70;;;19.60;87.10;;;;;;5066210;28;20090;-67
2021/06/28 03:38:26;;;;;;;4.20;3.67;;;19.60;87.20;;;;;;5071542;28;20024;-68
2021/06/28 03:40:51;;;;;;;7.13;3.92;;;19.60;87.20;;;;;;5070738;28;20542;-65
2021/06/28 03:43:17;;;;;;;5.28;3.88;;;19.60;87.30;;;;;;5070446;28;20124;-66
2021/06/28 03:45:43;;;;;;;5.85;3.70;;;19.60;87.30;;;;;;5069998;28;20491;-66
2021/06/28 03:48:10;;;;;;;5.80;3.42;;;19.60;87.50;;;;;;5070641;28;20032;-66
2021/06/28 03:50:37;;;;;;;7.60;3.92;;;19.60;87.60;;;;;;5071103;28;20035;-65
2021/06/28 03:53:04;;;;;;;4.22;3.83;;;19.60;87.50;;;;;;5070938;28;20032;-65
2021/06/28 03:55:30;;;;;;;6.07;3.90;;;19.60;87.50;;;;;;5067520;28;20040;-66
2021/06/28 03:57:55;;;;;;;4.57;3.72;;;19.70;87.50;;;;;;5070821;28;20032;-66
2021/06/28 04:00:23;;;;;;;4.85;4.15;;;19.60;87.40;;;;;;5070855;28;20365;-67
2021/06/28 04:02:49;;;;;;;4.75;4.05;;;19.60;87.50;;;;;;5070251;28;20046;-66
2021/06/28 04:05:20;;;;;;;9.43;4.28;;;19.60;87.60;;;;;;5070123;28;20028;-65
2021/06/28 04:07:45;;;;;;;4.35;3.95;;;19.60;87.60;;;;;;5070813;28;20082;-66
2021/06/28 04:10:13;;;;;;;6.10;4.40;;;19.60;87.60;;;;;;5069694;28;20423;-67
2021/06/28 04:12:38;;;;;;;5.22;4.40;;;19.60;87.80;;;;;;5069585;28;20356;-66
2021/06/28 04:15:09;;;;;;;6.60;4.38;;;19.60;87.90;;;;;;5051815;28;20108;-65
2021/06/28 04:17:39;;;;;;;7.70;4.15;;;19.60;88.10;;;;;;5052679;28;20480;-66
2021/06/28 04:20:07;;;;;;;6.55;3.83;;;19.60;88.00;;;;;;5070239;28;20103;-65
2021/06/28 04:22:33;;;;;;;8.32;4.32;;;19.50;88.10;;;;;;5052345;28;20504;-65
2021/06/28 04:24:59;;;;;;;6.97;4.57;;;19.50;88.10;;;;;;5069127;28;20036;-66
2021/06/28 04:27:24;;;;;;;7.80;4.28;;;19.50;88.10;;;;;;5070049;28;20036;-66
2021/06/28 04:29:50;;;;;;;5.28;4.50;;;19.40;88.10;;;;;;5068571;28;20078;-65
2021/06/28 04:32:15;;;;;;;8.57;4.68;;;19.40;88.30;;;;;;5069451;28;20166;-65
2021/06/28 04:34:44;;;;;;;4.50;4.13;;;19.40;88.40;;;;;;5069133;28;20056;-66
2021/06/28 04:37:10;;;;;;;7.85;4.35;;;19.40;88.50;;;;;;5061740;28;20075;-65
2021/06/28 04:39:36;;;;;;;10.55;4.65;;;19.40;88.60;;;;;;5051056;28;20096;-67
2021/06/28 04:42:02;;;;;;;11.15;4.13;;;19.40;88.70;;;;;;5070585;28;20506;-66
2021/06/28 04:44:28;;;;;;;7.50;4.28;;;19.50;88.80;;;;;;5068242;28;20097;-66
2021/06/28 04:46:53;;;;;;;6.80;3.75;;;19.50;88.70;;;;;;5069832;28;20055;-66
2021/06/28 04:49:19;;;;;;;5.10;4.30;;;19.50;88.80;;;;;;5069732;28;20025;-66
2021/06/28 04:51:46;;;;;;;8.40;4.40;;;19.50;88.80;;;;;;5070148;28;20574;-66
2021/06/28 04:54:11;;;;;;;6.55;4.13;;;19.50;88.90;;;;;;5061078;28;20043;-65
2021/06/28 04:56:37;;;;;;;7.18;4.28;;;19.50;88.90;;;;;;5061111;28;20384;-66
2021/06/28 04:59:03;;;;;;;6.97;3.88;;;19.50;88.90;;;;;;5069812;28;20038;-67
2021/06/28 05:01:28;;;;;;;4.13;3.67;;;19.50;88.90;;;;;;5070271;28;20446;-67
2021/06/28 05:03:54;;;;;;;4.95;3.90;;;19.50;89.10;;;;;;5061297;28;20032;-65
2021/06/28 05:06:19;;;;;;;7.20;3.90;;;19.50;89.10;;;;;;5069326;28;20295;-66
2021/06/28 05:08:45;;;;;;;7.57;4.47;;;19.50;89.00;;;;;;5069599;28;20032;-65
2021/06/28 05:11:10;;;;;;;4.90;4.25;;;19.50;89.00;;;;;;5069336;28;20392;-67
2021/06/28 05:13:36;;;;;;;8.73;4.45;;;19.50;89.00;;;;;;5069848;28;20099;-66
2021/06/28 05:16:02;;;;;;;8.82;3.90;;;19.50;89.10;;;;;;5068575;28;20024;-68
2021/06/28 05:18:27;;;;;;;5.38;4.15;;;19.40;89.10;;;;;;5070542;28;20504;-68
2021/06/28 05:20:53;;;;;;;4.63;3.78;;;19.50;89.30;;;;;;5051405;28;20119;-67
2021/06/28 05:23:20;;;;;;;4.50;3.42;;;19.50;89.50;;;;;;5050572;28;20025;-67
2021/06/28 05:25:45;;;;;;;5.57;3.33;;;19.50;89.50;;;;;;5064577;28;20108;-67
2021/06/28 05:28:11;;;;;;;4.20;3.80;;;19.60;89.50;;;;;;5069322;28;20424;-66
2021/06/28 05:30:37;;;;;;;7.22;3.83;;;19.60;89.40;;;;;;5064298;28;20024;-67
2021/06/28 05:33:03;;;;;;;6.57;3.58;;;19.60;89.30;;;;;;5067838;28;20032;-67
2021/06/28 05:35:29;;;;;;;5.72;3.55;;;19.70;89.30;;;;;;5050340;28;20047;-65
2021/06/28 05:37:54;;;;;;;5.60;3.47;;;19.70;89.80;;;;;;5069586;28;20502;-64
2021/06/28 05:40:20;;;;;;;7.70;3.40;;;19.80;89.30;;;;;;5067598;28;20078;-64
2021/06/28 05:42:47;;;;;;;3.85;3.40;;;19.90;89.40;;;;;;5069659;28;20165;-62
2021/06/28 05:45:13;;;;;;;4.43;3.30;;;20.00;89.40;;;;;;5068342;28;20020;-65
2021/06/28 05:47:39;;;;;;;3.28;2.97;;;20.10;89.30;;;;;;5069382;28;20024;-65
2021/06/28 05:50:08;;;;;;;3.67;3.13;;;20.30;89.20;;;;;;5070394;28;20044;-68
2021/06/28 05:52:34;;;;;;;4.35;2.90;;;20.40;89.20;;;;;;5051330;28;20032;-67
2021/06/28 05:54:59;;;;;;;4.45;3.22;;;20.70;88.90;;;;;;5049770;28;20499;-70
2021/06/28 05:57:25;;;;;;;2.97;2.63;;;20.80;88.40;;;;;;5050355;28;20025;-69
2021/06/28 05:59:52;;;;;;;2.63;2.42;;;21.00;88.30;;;;;;5051053;28;20035;-69
2021/06/28 06:02:18;;;;;;;3.03;2.67;;;21.10;87.80;;;;;;5069384;28;20107;-72
2021/06/28 06:04:44;;;;;;;2.55;2.35;;;21.20;87.00;;;;;;5069382;28;20040;-67
2021/06/28 06:07:11;;;;;;;2.67;2.40;;;21.20;86.80;;;;;;5062228;28;20031;-68
2021/06/28 06:09:37;;;;;;;4.75;2.50;;;21.30;86.80;;;;;;5069277;28;20107;-68
2021/06/28 06:12:03;;;;;;;4.70;3.47;;;21.30;87.00;;;;;;5063224;28;20065;-65
2021/06/28 06:14:29;;;;;;;4.22;3.65;;;21.30;86.50;;;;;;5067297;28;20045;-66
2021/06/28 06:16:54;;;;;;;4.78;3.58;;;21.40;86.60;;;;;;5068547;28;20529;-65
2021/06/28 06:19:20;;;;;;;3.38;3.08;;;21.40;86.50;;;;;;5042168;28;20021;-66
2021/06/28 06:21:46;;;;;;;4.70;3.00;;;21.30;86.70;;;;;;5069361;28;20060;-66
2021/06/28 06:24:11;;;;;;;4.47;3.05;;;21.40;87.00;;;;;;5068663;28;20036;-66
2021/06/28 06:26:37;;;;;;;4.38;2.90;;;21.50;87.10;;;;;;5068722;28;20480;-65
2021/06/28 06:29:03;;;;;;;4.15;2.85;;;21.60;87.00;;;;;;5073124;28;20446;-66
2021/06/28 06:31:28;;;;;;;3.85;3.05;;;21.70;86.80;;;;;;5073340;28;20020;-66
2021/06/28 06:33:54;;;;;;;160.55;121.25;;;21.90;86.50;;;;;;5073313;28;20024;-66
2021/06/28 06:36:20;;;;;;;11.32;8.80;;;22.20;86.10;;;;;;5072306;28;20056;-66
2021/06/28 06:38:45;;;;;;;7.03;3.75;;;22.30;85.80;;;;;;5072400;28;20036;-65
2021/06/28 06:41:11;;;;;;;3.70;2.67;;;22.50;85.40;;;;;;5073460;28;20448;-66
2021/06/28 06:43:37;;;;;;;4.82;2.50;;;22.80;85.20;;;;;;5072852;28;20054;-66
2021/06/28 06:46:02;;;;;;;2.20;2.00;;;23.00;84.50;;;;;;5072541;28;20480;-66
2021/06/28 06:48:28;;;;;;;3.53;2.47;;;23.30;83.60;;;;;;5072773;28;20033;-67
2021/06/28 06:50:54;;;;;;;4.68;2.50;;;23.60;83.00;;;;;;5073002;28;20028;-65
2021/06/28 06:53:19;;;;;;;2.97;2.08;;;23.80;82.10;;;;;;5068221;28;20070;-65
2021/06/28 06:55:45;;;;;;;1.90;1.80;;;24.00;81.30;;;;;;5120473;22;20401;-71
2021/06/28 06:58:11;;;;;;;1.88;1.77;;;24.20;80.70;;;;;;5053032;28;20021;-71
2021/06/28 07:00:39;;;;;;;1.63;1.52;;;24.40;79.80;;;;;;5052530;28;20032;-71
2021/06/28 07:03:06;;;;;;;1.70;1.55;;;24.70;78.60;;;;;;5044548;28;20445;-71
2021/06/28 07:05:32;;;;;;;1.80;1.60;;;24.90;77.60;;;;;;5017432;28;20043;-71
2021/06/28 07:07:58;;;;;;;1.50;1.40;;;25.10;76.50;;;;;;5033030;28;20108;-71
2021/06/28 07:10:24;;;;;;;2.78;1.38;;;25.40;76.00;;;;;;5033124;28;20026;-71
2021/06/28 07:12:50;;;;;;;2.60;1.40;;;25.60;75.00;;;;;;5032441;28;20033;-71
2021/06/28 07:15:18;;;;;;;1.80;1.48;;;25.90;73.80;;;;;;5032259;28;20033;-71
2021/06/28 07:17:44;;;;;;;2.85;1.67;;;26.10;72.40;;;;;;5032120;28;20393;-71
2021/06/28 07:20:14;;;;;;;1.70;1.60;;;26.30;72.20;;;;;;5032959;28;20022;-71
2021/06/28 07:22:40;;;;;;;1.55;1.40;;;26.60;71.70;;;;;;5032841;28;20025;-71
2021/06/28 07:25:11;;;;;;;1.45;1.40;;;26.80;71.20;;;;;;5031164;28;20025;-71
2021/06/28 07:27:38;;;;;;;2.00;1.60;;;27.10;70.00;;;;;;5023339;28;20079;-71
2021/06/28 07:30:10;;;;;;;1.90;1.45;;;27.30;69.80;;;;;;5012901;28;20034;-71
2021/06/28 07:32:36;;;;;;;1.30;1.30;;;27.50;68.70;;;;;;5012814;28;20022;-71
2021/06/28 07:35:01;;;;;;;1.63;1.48;;;27.70;68.80;;;;;;5030946;28;20041;-71
2021/06/28 07:37:27;;;;;;;2.30;1.48;;;27.90;68.00;;;;;;5031747;28;20029;-71
2021/06/28 07:39:54;;;;;;;2.20;1.30;;;28.10;67.20;;;;;;5031995;28;20021;-71
2021/06/28 07:42:19;;;;;;;1.60;1.27;;;28.10;66.60;;;;;;5032117;28;20025;-71
2021/06/28 07:44:45;;;;;;;1.50;1.40;;;28.20;66.10;;;;;;5023281;28;20038;-71
2021/06/28 07:47:10;;;;;;;2.00;1.40;;;28.40;65.40;;;;;;5028468;28;20109;-71
2021/06/28 07:49:36;;;;;;;1.88;1.40;;;28.60;64.90;;;;;;5031384;28;20104;-71
2021/06/28 07:52:02;;;;;;;1.75;1.35;;;28.70;63.80;;;;;;5028100;28;20042;-71
2021/06/28 07:54:29;;;;;;;1.40;1.30;;;28.90;63.40;;;;;;5030878;28;20025;-71
2021/06/28 07:56:55;;;;;;;1.38;1.27;;;29.10;63.00;;;;;;5031578;28;20031;-71
2021/06/28 07:59:21;;;;;;;2.05;1.30;;;29.30;62.50;;;;;;5031964;28;20104;-71
2021/06/28 08:01:46;;;;;;;2.20;1.55;;;29.50;61.80;;;;;;5031976;28;20083;-72
2021/06/28 08:04:12;;;;;;;1.75;1.20;;;29.70;61.60;;;;;;5031935;28;20060;-72
2021/06/28 08:06:37;;;;;;;1.00;1.00;;;30.00;61.30;;;;;;5031569;28;20506;-72
2021/06/28 08:09:04;;;;;;;1.10;1.10;;;30.20;59.80;;;;;;5014760;28;20163;-74
2021/06/28 08:11:30;;;;;;;1.30;1.17;;;30.50;59.70;;;;;;5014037;28;20029;-74
2021/06/28 08:13:55;;;;;;;4.75;1.10;;;30.70;58.80;;;;;;5031365;28;20076;-74
2021/06/28 08:16:23;;;;;;;1.15;1.00;;;30.90;57.80;;;;;;5030554;28;20018;-74
2021/06/28 08:18:49;;;;;;;2.55;1.05;;;31.10;56.70;;;;;;5031460;28;20079;-74
2021/06/28 08:21:15;;;;;;;1.15;1.00;;;31.20;56.00;;;;;;5032043;28;20049;-74
2021/06/28 08:23:41;;;;;;;2.13;1.13;;;31.50;55.90;;;;;;5031411;28;20010;-74
2021/06/28 08:26:08;;;;;;;2.10;0.93;;;31.80;55.20;;;;;;5031107;28;20025;-74
2021/06/28 08:28:33;;;;;;;0.93;0.90;;;32.10;54.40;;;;;;5031374;28;20022;-74
2021/06/28 08:30:59;;;;;;;2.22;1.00;;;32.20;53.90;;;;;;5031657;28;20048;-74
2021/06/28 08:33:25;;;;;;;2.13;0.77;;;32.40;52.40;;;;;;5013763;28;20033;-74
2021/06/28 08:35:50;;;;;;;0.95;0.90;;;32.30;52.20;;;;;;5030457;28;20025;-74
2021/06/28 08:38:17;;;;;;;1.85;1.15;;;32.30;51.90;;;;;;5040330;28;20466;-74
2021/06/28 08:40:43;;;;;;;1.00;1.00;;;32.50;52.10;;;;;;5038270;28;20117;-74
2021/06/28 08:43:09;;;;;;;0.80;0.80;;;32.80;52.50;;;;;;5031600;28;20465;-74
2021/06/28 08:45:37;;;;;;;0.80;0.80;;;33.10;51.30;;;;;;5030591;28;20037;-74
2021/06/28 08:48:04;;;;;;;1.00;0.88;;;33.30;51.10;;;;;;5031199;28;20032;-73
2021/06/28 08:50:30;;;;;;;3.50;1.30;;;33.50;50.90;;;;;;5030830;28;20381;-74
2021/06/28 08:52:56;;;;;;;0.95;0.80;;;33.70;50.70;;;;;;5030849;28;20130;-72
2021/06/28 08:55:21;;;;;;;1.10;1.00;;;33.90;50.00;;;;;;5038750;28;20496;-72
2021/06/28 08:57:47;;;;;;;1.02;0.90;;;34.30;49.70;;;;;;5030461;28;20096;-73
2021/06/28 09:00:15;;;;;;;1.27;1.17;;;34.60;47.90;;;;;;5030886;28;20477;-72
2021/06/28 09:02:43;;;;;;;1.73;0.90;;;34.60;47.60;;;;;;5030943;28;20036;-72
2021/06/28 09:05:10;;;;;;;2.13;0.98;;;34.60;46.70;;;;;;5030669;28;20486;-72
2021/06/28 09:07:36;;;;;;;1.67;1.00;;;34.50;46.70;;;;;;5030513;28;20033;-73
2021/06/28 09:10:03;;;;;;;1.10;1.08;;;34.90;46.20;;;;;;5013127;28;20031;-73
2021/06/28 09:12:29;;;;;;;1.08;0.98;;;35.20;45.40;;;;;;5030561;28;20053;-73
2021/06/28 09:14:58;;;;;;;0.90;0.80;;;35.40;45.10;;;;;;5045008;28;20461;-73
2021/06/28 09:17:39;;;;;;;1.08;1.08;;;35.50;44.40;;;;;;5032481;28;20021;-72
2021/06/28 09:20:22;;;;;;;3.90;1.10;;;35.60;44.50;;;;;;5031202;28;20083;-73
2021/06/28 09:22:50;;;;;;;0.85;0.85;;;35.60;45.20;;;;;;5018674;28;20033;-72
2021/06/28 09:25:37;;;;;;;2.13;1.10;;;36.00;44.80;;;;;;5037439;28;20036;-73
2021/06/28 09:28:03;;;;;;;1.25;0.95;;;35.90;44.10;;;;;;5029483;28;20489;-72
2021/06/28 09:30:30;;;;;;;3.20;1.00;;;36.00;43.50;;;;;;5030783;28;20026;-73
2021/06/28 09:32:58;;;;;;;1.00;1.00;;;36.40;43.20;;;;;;5030469;28;20022;-72
2021/06/28 09:35:40;;;;;;;1.30;1.20;;;36.50;42.30;;;;;;5029885;28;20549;-72
2021/06/28 09:38:08;;;;;;;1.25;1.17;;;36.80;42.70;;;;;;5013163;28;20079;-73
2021/06/28 09:40:37;;;;;;;2.63;1.00;;;37.00;42.70;;;;;;5029421;28;20401;-73
2021/06/28 09:43:23;;;;;;;1.25;1.23;;;37.30;41.90;;;;;;5030660;28;20026;-73
2021/06/28 09:45:54;;;;;;;2.28;1.20;;;37.40;42.10;;;;;;5021782;28;20030;-73
2021/06/28 09:48:30;;;;;;;;;;;37.60;41.90;;;;;;5031187;28;20013;-73
2021/06/28 09:51:20;;;;;;;1.40;1.20;;;37.70;43.70;;;;;;5030563;28;19905;-73
2021/06/28 09:53:51;;;;;;;1.38;1.27;;;37.70;42.70;;;;;;5005917;28;20029;-73
2021/06/28 09:56:32;;;;;;;2.58;1.30;;;37.80;41.70;;;;;;5027193;28;20084;-73
2021/06/28 09:58:57;;;;;;;;;;;37.70;42.10;;;;;;5030903;28;20032;-73
2021/06/28 10:01:26;;;;;;;1.15;1.15;;;37.60;44.20;;;;;;5031758;28;19905;-73
2021/06/28 10:03:54;;;;;;;2.15;1.50;;;37.40;43.30;;;;;;5033754;28;20021;-74
2021/06/28 10:08:49;;;;;;;4.95;1.60;;;36.70;42.60;;;;;;5033719;28;20022;-73
2021/06/28 10:11:25;;;;;;;3.50;1.50;;;36.50;43.10;;;;;;5034177;28;20083;-73
2021/06/28 10:13:57;;;;;;;3.25;1.60;;;36.50;43.40;;;;;;5029479;28;20431;-74
2021/06/28 10:16:25;;;;;;;1.70;1.13;;;36.40;42.90;;;;;;5030945;28;20033;-74
2021/06/28 10:18:58;;;;;;;1.27;1.17;;;36.20;42.70;;;;;;5033997;28;20021;-73
2021/06/28 10:21:25;;;;;;;1.95;1.20;;;36.00;42.40;;;;;;5033500;28;20452;-73
2021/06/28 10:23:51;;;;;;;1.48;1.38;;;35.90;43.20;;;;;;5033706;28;20029;-73
2021/06/28 10:26:17;;;;;;;1.30;1.10;;;35.80;43.60;;;;;;5040865;28;20028;-73
2021/06/28 10:28:43;;;;;;;3.55;1.10;;;35.60;43.30;;;;;;5033429;28;20068;-73
2021/06/28 10:31:10;;;;;;;1.20;1.10;;;35.30;43.10;;;;;;5014901;28;20033;-73
2021/06/28 10:33:38;;;;;;;1.42;1.27;;;34.90;43.00;;;;;;5033303;28;20076;-73
2021/06/28 10:36:13;;;;;;;2.83;1.20;;;34.50;43.30;;;;;;5032652;28;20056;-73
2021/06/28 10:38:57;;;;;;;1.50;1.40;;;34.30;44.00;;;;;;5033188;28;20029;-73
2021/06/28 10:41:43;;;;;;;1.38;1.23;;;34.00;44.00;;;;;;5031301;28;20057;-73
2021/06/28 10:44:15;;;;;;;1.70;1.60;;;33.80;45.40;;;;;;5032938;28;20100;-73
2021/06/28 10:46:43;;;;;;;2.92;1.30;;;33.80;45.30;;;;;;5032933;28;20083;-73
2021/06/28 10:49:10;;;;;;;1.70;1.60;;;33.80;44.50;;;;;;5033066;28;20125;-73
2021/06/28 10:51:41;;;;;;;1.48;1.38;;;33.80;44.60;;;;;;5031936;28;20385;-73
2021/06/28 10:54:07;;;;;;;2.03;1.40;;;33.70;44.60;;;;;;5031518;28;20022;-74
2021/06/28 10:56:34;;;;;;;5.10;1.58;;;33.60;45.30;;;;;;5031977;28;20025;-73
2021/06/28 10:59:05;;;;;;;1.63;1.50;;;33.60;45.30;;;;;;5025773;28;20021;-73
2021/06/28 11:01:40;;;;;;;3.90;1.73;;;33.50;44.80;;;;;;5032067;28;20044;-73
2021/06/28 11:04:11;;;;;;;1.63;1.52;;;33.50;45.70;;;;;;5033025;28;20454;-74
2021/06/28 11:06:59;;;;;;;1.95;1.60;;;33.40;46.00;;;;;;5013497;28;20053;-74
2021/06/28 11:09:40;;;;;;;4.20;1.60;;;33.40;45.80;;;;;;5007872;28;20033;-74
2021/06/28 11:12:17;;;;;;;1.48;1.38;;;33.40;45.70;;;;;;5030540;28;20029;-74
2021/06/28 11:15:04;;;;;;;5.07;1.50;;;33.40;45.60;;;;;;5013594;28;20022;-73
2021/06/28 11:17:43;;;;;;;1.77;1.50;;;33.50;46.40;;;;;;5031851;28;20046;-73
2021/06/28 11:20:38;;;;;;;1.55;1.40;;;33.40;46.50;;;;;;5033160;28;20021;-73
2021/06/28 11:23:16;;;;;;;2.47;1.50;;;33.40;46.70;;;;;;5030259;28;20047;-73
2021/06/28 11:25:54;;;;;;;3.00;1.45;;;33.30;46.00;;;;;;5035154;28;20052;-73
2021/06/28 11:28:37;;;;;;;3.92;1.80;;;33.20;46.40;;;;;;5015175;28;20057;-73
2021/06/28 11:31:13;;;;;;;4.10;1.38;;;33.20;46.00;;;;;;5025331;28;20037;-73
2021/06/28 11:33:49;;;;;;;4.85;1.70;;;33.30;46.70;;;;;;5032602;28;20017;-73
2021/06/28 11:36:23;;;;;;;2.95;1.60;;;33.30;46.90;;;;;;5031218;28;20026;-73
2021/06/28 11:38:57;;;;;;;1.60;1.50;;;33.30;47.00;;;;;;5032259;28;20099;-74
2021/06/28 11:41:24;;;;;;;2.83;1.60;;;33.30;47.20;;;;;;5040225;28;20143;-73
2021/06/28 11:43:53;;;;;;;3.97;1.50;;;33.30;46.70;;;;;;5032323;28;20033;-73
2021/06/28 11:46:25;;;;;;;1.80;1.58;;;33.30;46.30;;;;;;5014003;28;20025;-73
2021/06/28 11:48:54;;;;;;;1.63;1.52;;;33.30;46.30;;;;;;5031683;28;20025;-74
2021/06/28 11:51:28;;;;;;;7.43;6.72;;;33.30;46.80;;;;;;5027206;28;20395;-73
2021/06/28 11:54:09;;;;;;;3.30;1.60;;;33.30;46.90;;;;;;5032879;28;20046;-73
2021/06/28 11:56:39;;;;;;;2.28;1.55;;;33.40;46.50;;;;;;5031187;28;20030;-73
2021/06/28 11:59:11;;;;;;;2.88;1.90;;;33.30;46.10;;;;;;5025220;28;20049;-73
2021/06/28 12:01:46;;;;;;;3.47;1.80;;;33.20;45.40;;;;;;5031400;28;20021;-74
2021/06/28 12:04:17;;;;;;;3.17;1.48;;;33.10;45.50;;;;;;5031879;28;20482;-73
2021/06/28 12:06:43;;;;;;;1.85;1.60;;;33.00;46.40;;;;;;5028734;28;20048;-74
2021/06/28 12:09:12;;;;;;;1.50;1.38;;;33.00;46.50;;;;;;5032073;28;20100;-73
2021/06/28 12:12:00;;;;;;;1.60;1.50;;;33.00;46.20;;;;;;5031020;28;20435;-73
2021/06/28 12:14:34;;;;;;;4.10;1.88;;;32.90;46.50;;;;;;5014115;28;20022;-73
2021/06/28 12:17:06;;;;;;;1.58;1.50;;;32.90;46.60;;;;;;5013454;28;20033;-73
2021/06/28 12:19:31;;;;;;;3.55;1.80;;;33.00;47.00;;;;;;5031308;28;20034;-74
2021/06/28 12:21:57;;;;;;;3.25;1.90;;;33.00;46.60;;;;;;5031219;28;20366;-73
2021/06/28 12:24:23;;;;;;;1.70;1.60;;;32.90;46.70;;;;;;5035016;28;20478;-73
2021/06/28 12:27:07;;;;;;;2.60;1.73;;;32.90;46.90;;;;;;5030630;28;20096;-73
2021/06/28 12:29:33;;;;;;;1.88;1.60;;;33.00;47.10;;;;;;5031294;28;20033;-74
2021/06/28 12:32:24;;;;;;;1.90;1.80;;;33.00;47.30;;;;;;5013797;28;20053;-74
2021/06/28 12:34:50;;;;;;;2.08;1.90;;;33.00;47.30;;;;;;5017543;28;20037;-74
2021/06/28 12:37:33;;;;;;;3.67;1.88;;;33.00;47.10;;;;;;5013259;28;20068;-74
2021/06/28 12:40:31;;;;;;;5.50;1.88;;;32.80;47.00;;;;;;5030280;28;20027;-74
2021/06/28 12:43:12;;;;;;;2.33;2.13;;;32.70;47.20;;;;;;5031309;28;20031;-74
2021/06/28 12:45:44;;;;;;;2.40;2.20;;;32.70;47.30;;;;;;5011543;28;20092;-74
2021/06/28 12:48:19;;;;;;;2.50;2.10;;;32.60;47.40;;;;;;5027203;28;20037;-74
2021/06/28 12:50:53;;;;;;;2.58;2.38;;;32.50;47.40;;;;;;5030942;28;20025;-73
2021/06/28 12:53:19;;;;;;;4.93;2.30;;;32.50;47.60;;;;;;5030510;28;20418;-74
2021/06/28 12:58:47;;;;;;;2.25;1.77;;;32.50;47.70;;;;;;5048879;28;20045;-68